Time;durP1;ratioP1;P1;durP2;ratioP2;P2;SDS_P1;SDS_P2;PMS_P1;PMS_P2;Temp;Humidity;BMP_temperature;BMP_pressure;BME280_temperature;BME280_humidity;BME280_pressure;Samples;Min_cycle;Max_cycle;Signal;HPM_P1;HPM_P2
2021/03/06 00:02:19;;;;;;;6.25;3.50;;;5.10;93.10;12.30;100768.00;;;;5047993;28;20199;-66
2021/03/06 00:04:45;;;;;;;5.60;3.93;;;5.10;92.80;12.40;100760.00;;;;5048114;28;20197;-66
2021/03/06 00:07:11;;;;;;;4.93;3.43;;;5.10;92.80;12.50;100775.00;;;;5047793;28;20259;-68
2021/03/06 00:09:37;;;;;;;5.93;3.50;;;5.10;92.80;12.40;100775.00;;;;5048434;28;20261;-66
2021/03/06 00:12:06;;;;;;;5.60;3.37;;;5.10;92.70;12.40;100785.00;;;;5048005;28;20783;-66
2021/03/06 00:14:31;;;;;;;5.78;3.80;;;5.10;92.70;12.50;100778.00;;;;5048946;28;20429;-67
2021/03/06 00:16:58;;;;;;;5.57;3.30;;;5.10;92.80;12.60;100784.00;;;;5051917;28;20193;-67
2021/03/06 00:19:24;;;;;;;5.10;2.83;;;5.10;92.80;12.30;100790.00;;;;5051753;28;20206;-67
2021/03/06 00:21:50;;;;;;;7.07;3.50;;;5.10;92.80;12.30;100797.00;;;;5035167;28;20645;-67
2021/03/06 00:24:15;;;;;;;5.77;3.50;;;5.10;92.70;12.60;100793.00;;;;5035278;28;20458;-66
2021/03/06 00:26:41;;;;;;;5.53;3.40;;;5.10;92.70;12.40;100795.00;;;;5051394;28;20284;-69
2021/03/06 00:29:07;;;;;;;5.73;3.30;;;5.00;92.70;12.40;100794.00;;;;5051220;28;20178;-68
2021/03/06 00:31:35;;;;;;;6.70;4.23;;;5.10;92.70;12.60;100801.00;;;;5049984;28;20221;-67
2021/03/06 00:34:01;;;;;;;5.55;3.40;;;5.00;92.70;12.50;100793.00;;;;5051703;28;20178;-67
2021/03/06 00:36:27;;;;;;;5.70;4.13;;;5.10;92.70;12.50;100807.00;;;;5034985;28;20692;-67
2021/03/06 00:38:53;;;;;;;5.30;3.33;;;5.00;92.70;12.40;100801.00;;;;5051833;28;20403;-67
2021/03/06 00:41:18;;;;;;;6.40;4.00;;;5.10;92.70;12.50;100803.00;;;;5049990;28;20245;-66
2021/03/06 00:43:44;;;;;;;6.63;3.40;;;5.10;92.70;12.60;100807.00;;;;5051507;28;20193;-66
2021/03/06 00:46:10;;;;;;;6.00;3.63;;;5.00;92.60;12.40;100797.00;;;;5052165;28;20267;-66
2021/03/06 00:48:35;;;;;;;5.60;3.50;;;5.00;92.60;12.50;100797.00;;;;5034528;28;20222;-68
2021/03/06 00:51:01;;;;;;;6.10;2.90;;;5.00;92.60;12.40;100799.00;;;;5051340;28;20198;-67
2021/03/06 00:53:27;;;;;;;6.73;4.30;;;5.00;92.60;12.30;100808.00;;;;5035173;28;20182;-67
2021/03/06 00:55:53;;;;;;;6.30;3.93;;;5.00;92.60;12.50;100798.00;;;;5032922;28;20460;-66
2021/03/06 00:58:18;;;;;;;5.43;3.60;;;5.00;92.60;12.30;100804.00;;;;5051001;28;20182;-67
2021/03/06 01:00:44;;;;;;;7.03;4.10;;;5.00;92.60;12.40;100808.00;;;;5050831;28;20265;-66
2021/03/06 01:03:10;;;;;;;5.77;4.00;;;5.00;92.60;12.20;100811.00;;;;5050532;28;20596;-66
2021/03/06 01:05:36;;;;;;;5.37;3.47;;;5.00;92.60;12.50;100812.00;;;;5032836;28;20676;-67
2021/03/06 01:08:04;;;;;;;6.27;4.10;;;5.00;92.60;12.40;100803.00;;;;5050177;28;20641;-67
2021/03/06 01:10:34;;;;;;;6.25;3.53;;;5.00;92.60;12.30;100815.00;;;;5050288;28;20680;-66
2021/03/06 01:13:00;;;;;;;5.95;3.85;;;5.00;92.60;12.30;100814.00;;;;5051025;28;20265;-66
2021/03/06 01:15:26;;;;;;;6.50;4.10;;;5.00;92.60;12.30;100820.00;;;;5051864;28;20732;-66
2021/03/06 01:17:52;;;;;;;5.80;3.57;;;5.00;92.60;12.60;100810.00;;;;5050432;28;20182;-68
2021/03/06 01:20:18;;;;;;;6.38;3.55;;;5.00;92.90;12.30;100816.00;;;;5050320;28;20487;-66
2021/03/06 01:22:43;;;;;;;6.37;3.47;;;5.00;92.60;12.20;100815.00;;;;5050772;28;20587;-66
2021/03/06 01:25:10;;;;;;;6.10;3.77;;;5.00;92.50;12.10;100805.00;;;;5052021;28;20461;-67
2021/03/06 01:27:36;;;;;;;5.82;3.80;;;5.00;92.60;12.20;100804.00;;;;5050953;28;20535;-67
2021/03/06 01:30:03;;;;;;;4.90;3.20;;;5.00;92.60;12.30;100813.00;;;;5050684;28;20206;-66
2021/03/06 01:32:29;;;;;;;5.70;3.70;;;5.00;92.60;12.30;100793.00;;;;5049430;28;20241;-66
2021/03/06 01:34:54;;;;;;;5.67;3.53;;;5.00;92.60;12.20;100806.00;;;;5051663;28;20202;-66
2021/03/06 01:37:20;;;;;;;7.83;3.67;;;5.00;92.50;12.20;100804.00;;;;5049369;28;20464;-67
2021/03/06 01:39:46;;;;;;;4.67;2.83;;;5.00;92.60;12.30;100808.00;;;;5050026;28;20255;-67
2021/03/06 01:42:11;;;;;;;5.07;3.37;;;4.90;92.50;12.30;100802.00;;;;5050600;28;20787;-67
2021/03/06 01:44:37;;;;;;;7.27;4.03;;;5.00;92.50;12.20;100812.00;;;;5049796;28;20178;-67
2021/03/06 01:47:03;;;;;;;6.10;3.50;;;4.90;92.50;12.30;100820.00;;;;5050144;28;20182;-68
2021/03/06 01:49:28;;;;;;;6.57;3.60;;;4.90;92.50;12.10;100815.00;;;;5032958;28;20182;-67
2021/03/06 01:51:58;;;;;;;4.93;3.30;;;4.90;92.50;12.20;100823.00;;;;5049115;28;20560;-67
2021/03/06 01:54:25;;;;;;;5.60;3.38;;;4.90;92.80;12.20;100810.00;;;;5050531;28;20263;-67
2021/03/06 01:56:51;;;;;;;5.65;3.90;;;5.00;92.50;12.20;100815.00;;;;5032978;28;20691;-67
2021/03/06 01:59:17;;;;;;;6.07;3.92;;;4.90;92.50;12.20;100816.00;;;;5049287;28;20192;-67
2021/03/06 02:01:43;;;;;;;6.80;3.87;;;4.90;92.50;12.20;100805.00;;;;5049469;28;20288;-68
2021/03/06 02:04:09;;;;;;;5.07;3.10;;;5.00;92.50;12.30;100822.00;;;;5050028;28;20440;-67
2021/03/06 02:06:36;;;;;;;5.75;3.50;;;4.90;92.50;12.40;100813.00;;;;5049473;28;20230;-67
2021/03/06 02:09:02;;;;;;;5.68;3.00;;;4.90;92.50;12.30;100824.00;;;;5051268;28;20182;-67
2021/03/06 02:11:54;;;;;;;5.60;3.25;;;4.90;92.80;12.20;100818.00;;;;5049494;28;20218;-67
2021/03/06 02:14:44;;;;;;;6.35;3.70;;;4.90;92.50;12.20;100818.00;;;;5049462;28;20197;-67
2021/03/06 02:17:18;;;;;;;4.78;3.03;;;4.90;92.50;12.00;100827.00;;;;5050819;28;20176;-67
2021/03/06 02:20:20;;;;;;;5.25;3.08;;;4.90;92.40;12.10;100823.00;;;;5049559;28;20229;-67
2021/03/06 02:23:15;;;;;;;7.13;3.78;;;4.90;92.50;12.20;100819.00;;;;5049046;28;20205;-67
2021/03/06 02:26:21;;;;;;;5.45;3.53;;;4.90;92.50;11.90;100819.00;;;;5049663;28;20209;-67
2021/03/06 02:29:07;;;;;;;5.38;3.20;;;4.90;92.50;12.10;100831.00;;;;5048985;28;20182;-66
2021/03/06 02:31:34;;;;;;;5.35;3.00;;;4.90;92.50;11.90;100825.00;;;;5049360;28;20198;-67
2021/03/06 02:34:06;;;;;;;5.97;3.60;;;4.90;92.40;12.20;100827.00;;;;5049295;28;20193;-67
2021/03/06 02:36:35;;;;;;;5.95;3.90;;;4.90;92.40;12.10;100832.00;;;;5048849;28;20388;-67
2021/03/06 02:39:03;;;;;;;6.40;3.65;;;4.90;92.40;12.30;100839.00;;;;5049026;28;20178;-67
2021/03/06 02:41:31;;;;;;;5.50;3.38;;;4.90;92.40;12.10;100830.00;;;;5048974;28;20244;-67
2021/03/06 02:43:56;;;;;;;5.93;3.67;;;4.90;92.40;12.10;100830.00;;;;5049296;28;20271;-67
2021/03/06 02:46:24;;;;;;;6.60;3.37;;;4.90;92.40;12.20;100839.00;;;;5032113;28;20688;-67
2021/03/06 02:48:52;;;;;;;6.10;3.83;;;4.90;92.40;12.20;100843.00;;;;5048984;28;20258;-67
2021/03/06 02:51:17;;;;;;;5.68;3.50;;;4.90;92.80;12.20;100838.00;;;;5048937;28;20616;-67
2021/03/06 02:53:43;;;;;;;5.23;3.23;;;4.90;92.40;12.10;100838.00;;;;5048492;28;20178;-68
2021/03/06 02:56:09;;;;;;;5.87;3.27;;;4.90;92.40;12.10;100855.00;;;;5048857;28;20205;-67
2021/03/06 02:58:57;;;;;;;4.90;3.13;;;4.90;92.40;12.30;100859.00;;;;5048335;28;20182;-68
2021/03/06 03:02:13;;;;;;;4.95;3.38;;;4.80;92.40;12.20;100846.00;;;;5032231;28;20275;-66
2021/03/06 03:04:54;;;;;;;5.60;3.30;;;4.90;92.40;12.30;100852.00;;;;5049031;28;20189;-66
2021/03/06 03:08:01;;;;;;;5.95;3.40;;;4.80;92.30;12.40;100853.00;;;;5048521;28;20190;-67
2021/03/06 03:10:27;;;;;;;5.65;3.50;;;4.80;92.30;12.00;100857.00;;;;5048977;28;20202;-67
2021/03/06 03:13:01;;;;;;;5.15;3.42;;;4.80;92.30;12.20;100856.00;;;;5031815;28;20731;-66
2021/03/06 03:15:42;;;;;;;5.20;2.92;;;4.80;92.30;12.10;100849.00;;;;5049157;28;20208;-66
2021/03/06 03:18:16;;;;;;;5.10;3.22;;;4.80;92.30;12.20;100866.00;;;;5048812;28;20185;-67
2021/03/06 03:20:53;;;;;;;5.85;3.85;;;4.80;92.30;12.20;100854.00;;;;5049116;28;20225;-66
2021/03/06 03:23:50;;;;;;;6.20;4.18;;;4.80;92.30;12.20;100868.00;;;;5048247;28;20648;-66
2021/03/06 03:26:16;;;;;;;6.38;4.25;;;4.80;92.30;12.20;100862.00;;;;5048831;28;20201;-67
2021/03/06 03:28:47;;;;;;;5.90;3.40;;;4.80;92.30;12.30;100856.00;;;;5048088;28;20637;-67
2021/03/06 03:31:13;;;;;;;6.40;3.40;;;4.80;92.30;12.20;100861.00;;;;5048015;28;20679;-66
2021/03/06 03:33:40;;;;;;;6.40;3.67;;;4.80;92.30;12.20;100872.00;;;;5048537;28;20230;-66
2021/03/06 03:36:06;;;;;;;5.78;3.58;;;4.80;92.30;12.40;100854.00;;;;5031830;28;20237;-66
2021/03/06 03:38:33;;;;;;;5.32;3.30;;;4.80;92.30;12.40;100865.00;;;;5031532;28;20185;-68
2021/03/06 03:41:03;;;;;;;5.72;3.60;;;4.80;92.30;12.30;100875.00;;;;5032315;28;20209;-66
2021/03/06 03:43:29;;;;;;;6.57;3.35;;;4.80;92.30;12.00;100873.00;;;;5046698;28;20186;-67
2021/03/06 03:45:55;;;;;;;5.90;3.53;;;4.80;92.20;12.40;100873.00;;;;5031722;28;20288;-66
2021/03/06 03:48:21;;;;;;;5.83;3.50;;;4.80;92.20;11.90;100872.00;;;;5049421;28;20490;-67
2021/03/06 03:50:47;;;;;;;7.63;4.00;;;4.80;92.20;11.80;100871.00;;;;5052202;28;20427;-67
2021/03/06 03:53:13;;;;;;;6.30;3.50;;;4.80;92.20;12.10;100878.00;;;;5052141;28;20193;-66
2021/03/06 03:55:40;;;;;;;6.27;4.13;;;4.80;92.20;12.20;100884.00;;;;5052466;28;21028;-66
2021/03/06 03:58:05;;;;;;;6.75;4.70;;;4.80;92.20;12.00;100881.00;;;;5051737;28;20435;-67
2021/03/06 04:00:31;;;;;;;7.67;5.23;;;4.70;92.20;12.20;100886.00;;;;5052623;28;20609;-67
2021/03/06 04:03:04;;;;;;;7.80;5.10;;;4.70;92.20;11.90;100875.00;;;;5051904;28;20200;-67
2021/03/06 04:05:30;;;;;;;7.57;5.30;;;4.80;92.20;12.10;100883.00;;;;5052083;28;20206;-66
2021/03/06 04:07:56;;;;;;;9.40;6.00;;;4.70;92.20;12.10;100885.00;;;;5051813;28;20185;-67
2021/03/06 04:10:23;;;;;;;8.27;6.47;;;4.70;92.20;12.10;100887.00;;;;5053447;28;20197;-66
2021/03/06 04:12:50;;;;;;;8.00;6.00;;;4.80;92.20;12.00;100884.00;;;;5052919;28;20419;-67
2021/03/06 04:15:17;;;;;;;6.85;5.10;;;4.70;92.20;12.10;100888.00;;;;5051850;28;20270;-66
2021/03/06 04:17:43;;;;;;;9.45;6.13;;;4.70;92.20;11.90;100884.00;;;;5051670;28;20177;-67
2021/03/06 04:20:11;;;;;;;7.53;5.37;;;4.70;92.20;12.10;100890.00;;;;5051649;28;20279;-67
2021/03/06 04:22:36;;;;;;;7.82;5.70;;;4.70;92.20;11.70;100898.00;;;;5051506;28;20528;-66
2021/03/06 04:25:04;;;;;;;8.17;5.27;;;4.70;92.10;11.90;100874.00;;;;5051946;28;20765;-66
2021/03/06 04:27:30;;;;;;;8.70;5.68;;;4.70;92.10;12.00;100894.00;;;;5051239;28;20220;-66
2021/03/06 04:29:55;;;;;;;8.80;5.43;;;4.70;92.20;11.80;100889.00;;;;5035022;28;20237;-66
2021/03/06 04:32:21;;;;;;;8.03;5.73;;;4.70;92.10;11.90;100904.00;;;;5053010;28;20783;-66
2021/03/06 04:34:47;;;;;;;7.97;5.13;;;4.70;92.10;11.80;100907.00;;;;5050855;28;20231;-66
2021/03/06 04:37:13;;;;;;;7.87;5.60;;;4.70;92.10;11.80;100907.00;;;;5051968;28;20571;-66
2021/03/06 04:39:38;;;;;;;8.10;5.70;;;4.70;92.10;11.90;100912.00;;;;5050926;28;20738;-66
2021/03/06 04:42:04;;;;;;;7.23;5.53;;;4.70;92.10;12.00;100908.00;;;;5051557;28;20182;-66
2021/03/06 04:44:30;;;;;;;9.20;6.03;;;4.70;92.10;11.80;100908.00;;;;5051388;28;20182;-66
2021/03/06 04:46:56;;;;;;;8.53;6.20;;;4.70;92.10;11.80;100908.00;;;;5050887;28;20418;-67
2021/03/06 04:49:22;;;;;;;8.48;5.90;;;4.70;92.10;11.90;100904.00;;;;5034675;28;20182;-66
2021/03/06 04:51:49;;;;;;;8.37;5.73;;;4.70;92.50;11.80;100911.00;;;;5051504;28;20182;-67
2021/03/06 04:54:15;;;;;;;9.05;6.18;;;4.70;92.10;12.00;100915.00;;;;5051095;28;20851;-66
2021/03/06 04:56:40;;;;;;;10.37;6.73;;;4.70;92.10;11.90;100877.00;;;;5052763;28;20479;-67
2021/03/06 04:59:06;;;;;;;7.80;5.83;;;4.70;92.10;11.90;100906.00;;;;5050684;28;20214;-66
2021/03/06 05:01:32;;;;;;;7.97;6.47;;;4.70;92.10;11.90;100924.00;;;;5033194;28;20218;-66
2021/03/06 05:03:57;;;;;;;8.63;5.90;;;4.60;92.10;11.90;100922.00;;;;5034271;28;20205;-66
2021/03/06 05:06:23;;;;;;;8.50;5.80;;;4.60;92.10;11.80;100922.00;;;;5052391;28;20224;-66
2021/03/06 05:08:49;;;;;;;8.10;5.83;;;4.70;92.10;11.80;100932.00;;;;5034052;28;20193;-66
2021/03/06 05:11:14;;;;;;;8.40;5.83;;;4.70;92.10;11.90;100922.00;;;;5052327;28;20209;-66
2021/03/06 05:13:40;;;;;;;9.17;5.83;;;4.70;92.10;12.00;100932.00;;;;5051507;28;20254;-67
2021/03/06 05:16:06;;;;;;;7.83;6.03;;;4.60;92.00;11.70;100939.00;;;;5050811;28;20197;-66
2021/03/06 05:18:32;;;;;;;7.87;5.27;;;4.60;92.00;12.00;100937.00;;;;5050517;28;20186;-66
2021/03/06 05:20:58;;;;;;;9.00;6.03;;;4.60;92.00;12.00;100938.00;;;;5050732;28;20450;-66
2021/03/06 05:23:24;;;;;;;8.55;5.78;;;4.60;92.00;11.70;100941.00;;;;5051725;28;20274;-67
2021/03/06 05:25:49;;;;;;;8.33;5.80;;;4.60;92.00;11.80;100961.00;;;;5050784;28;20256;-66
2021/03/06 05:28:22;;;;;;;8.47;5.90;;;4.60;92.00;11.80;100946.00;;;;5050738;28;20484;-67
2021/03/06 05:30:48;;;;;;;8.40;6.20;;;4.60;92.00;11.80;100950.00;;;;5050600;28;20213;-66
2021/03/06 05:33:15;;;;;;;8.30;6.10;;;4.60;92.00;11.70;100950.00;;;;5050897;28;20692;-66
2021/03/06 05:35:41;;;;;;;8.27;5.35;;;4.60;92.00;11.80;100954.00;;;;5050281;28;20194;-67
2021/03/06 05:38:07;;;;;;;8.30;5.95;;;4.60;92.00;11.90;100951.00;;;;5050708;28;20196;-66
2021/03/06 05:40:38;;;;;;;7.77;5.80;;;4.60;92.00;11.70;100953.00;;;;5033193;28;20231;-65
2021/03/06 05:43:04;;;;;;;8.60;6.43;;;4.60;92.00;11.70;100957.00;;;;5050476;28;20412;-65
2021/03/06 05:45:30;;;;;;;10.27;6.13;;;4.60;92.00;11.60;100965.00;;;;5049455;28;20202;-66
2021/03/06 05:47:57;;;;;;;8.50;5.65;;;4.60;92.00;11.70;100970.00;;;;5050681;28;20265;-66
2021/03/06 05:50:23;;;;;;;8.45;5.78;;;4.60;92.00;11.70;100968.00;;;;5049879;28;20205;-66
2021/03/06 05:52:49;;;;;;;8.07;6.15;;;4.60;92.00;11.60;100955.00;;;;5051115;28;20244;-66
2021/03/06 05:55:17;;;;;;;9.37;6.30;;;4.60;92.00;11.70;100977.00;;;;5050073;28;20676;-66
2021/03/06 05:57:42;;;;;;;7.65;5.88;;;4.60;92.40;11.70;100977.00;;;;5033543;28;20645;-66
2021/03/06 06:00:09;;;;;;;9.23;6.10;;;4.60;92.00;11.80;100976.00;;;;5049192;28;20304;-66
2021/03/06 06:02:34;;;;;;;8.13;5.68;;;4.60;92.00;11.80;100969.00;;;;5032708;28;20226;-67
2021/03/06 06:05:00;;;;;;;7.23;5.57;;;4.60;92.00;11.90;100970.00;;;;5048579;28;20236;-67
2021/03/06 06:07:26;;;;;;;8.77;5.93;;;4.60;92.40;11.70;100968.00;;;;5033926;28;20407;-67
2021/03/06 06:09:53;;;;;;;7.63;5.60;;;4.60;92.00;11.70;100976.00;;;;5049596;28;20979;-67
2021/03/06 06:12:19;;;;;;;7.35;5.15;;;4.60;92.00;11.80;100990.00;;;;5032435;28;20264;-67
2021/03/06 06:14:45;;;;;;;9.87;5.47;;;4.60;92.00;11.70;100986.00;;;;5049424;28;20289;-67
2021/03/06 06:17:11;;;;;;;7.83;5.40;;;4.60;92.00;11.70;100997.00;;;;5049895;28;20182;-68
2021/03/06 06:19:37;;;;;;;7.67;5.17;;;4.60;92.00;11.60;100992.00;;;;5050102;28;20628;-67
2021/03/06 06:22:24;;;;;;;8.88;5.75;;;4.60;92.00;11.70;100997.00;;;;5050255;28;20425;-67
2021/03/06 06:24:52;;;;;;;7.15;5.20;;;4.60;92.00;11.60;101005.00;;;;5033020;28;20207;-67
2021/03/06 06:27:32;;;;;;;7.60;5.25;;;4.60;92.00;11.80;101009.00;;;;5049780;28;20270;-67
2021/03/06 06:30:11;;;;;;;7.13;5.15;;;4.60;92.00;11.60;101002.00;;;;5049045;28;20201;-67
2021/03/06 06:32:44;;;;;;;9.18;6.18;;;4.60;92.00;11.70;101015.00;;;;5032539;28;20267;-67
2021/03/06 06:35:15;;;;;;;7.85;5.25;;;4.60;92.00;11.60;101013.00;;;;5048546;28;20201;-67
2021/03/06 06:38:00;;;;;;;8.45;5.60;;;4.50;92.00;11.60;101018.00;;;;5033040;28;20214;-67
2021/03/06 06:40:28;;;;;;;8.52;6.30;;;4.50;92.00;11.70;101027.00;;;;5049078;28;20568;-67
2021/03/06 06:42:55;;;;;;;9.48;6.22;;;4.60;92.10;11.60;101022.00;;;;5049859;28;20632;-67
2021/03/06 06:45:21;;;;;;;7.65;5.28;;;4.50;92.00;11.80;101020.00;;;;5048184;28;20206;-67
2021/03/06 06:47:49;;;;;;;7.97;5.15;;;4.50;92.00;11.70;101024.00;;;;5032522;28;20186;-68
2021/03/06 06:50:31;;;;;;;8.00;5.57;;;4.50;92.00;11.60;101037.00;;;;5050475;28;20260;-67
2021/03/06 06:52:57;;;;;;;7.72;5.90;;;4.50;92.00;11.60;101029.00;;;;5049345;28;20186;-67
2021/03/06 06:55:37;;;;;;;7.57;5.37;;;4.50;92.00;11.60;101023.00;;;;5048985;28;20202;-67
2021/03/06 06:58:02;;;;;;;9.35;5.68;;;4.50;92.10;11.60;101031.00;;;;5049077;28;20212;-67
2021/03/06 07:00:30;;;;;;;10.77;5.60;;;4.60;92.10;11.60;101028.00;;;;5048473;28;20241;-67
2021/03/06 07:03:01;;;;;;;6.53;4.82;;;4.50;92.10;11.60;101047.00;;;;5049174;28;20927;-67
2021/03/06 07:05:39;;;;;;;7.07;5.07;;;4.50;92.10;11.80;101041.00;;;;5032621;28;20202;-67
2021/03/06 07:08:21;;;;;;;7.90;5.28;;;4.50;92.10;11.70;101049.00;;;;5049169;28;20655;-67
2021/03/06 07:10:47;;;;;;;8.75;5.57;;;4.50;92.10;11.80;101058.00;;;;5048643;28;20202;-67
2021/03/06 07:13:14;;;;;;;9.27;5.23;;;4.50;92.10;11.60;101058.00;;;;5049291;28;20175;-68
2021/03/06 07:15:40;;;;;;;7.45;5.43;;;4.50;92.10;11.60;101058.00;;;;5049601;28;20209;-67
2021/03/06 07:18:16;;;;;;;7.30;5.53;;;4.50;92.10;11.80;101036.00;;;;5050277;28;20189;-67
2021/03/06 07:20:42;;;;;;;8.57;5.50;;;4.50;92.10;11.70;101057.00;;;;5048242;28;20235;-67
2021/03/06 07:23:22;;;;;;;7.57;5.00;;;4.50;92.50;11.70;101049.00;;;;5047969;28;20637;-67
2021/03/06 07:25:55;;;;;;;7.55;5.50;;;4.50;92.10;11.60;101043.00;;;;5048531;28;20944;-67
2021/03/06 07:28:22;;;;;;;7.90;5.70;;;4.50;92.50;11.50;101054.00;;;;5048847;28;20182;-67
2021/03/06 07:30:48;;;;;;;7.55;5.32;;;4.50;92.10;11.70;101065.00;;;;5047870;28;20300;-67
2021/03/06 07:33:16;;;;;;;7.10;4.90;;;4.50;92.20;11.60;101063.00;;;;5049004;28;20764;-67
2021/03/06 07:35:43;;;;;;;8.38;5.00;;;4.50;92.10;11.60;101055.00;;;;5048061;28;20458;-67
2021/03/06 07:38:10;;;;;;;10.85;5.50;;;4.50;92.10;11.60;101063.00;;;;5048638;28;20658;-68
2021/03/06 07:40:59;;;;;;;7.80;5.40;;;4.50;92.10;11.70;101055.00;;;;5031723;28;20566;-67
2021/03/06 07:43:30;;;;;;;9.45;5.63;;;4.50;92.10;11.60;101071.00;;;;5032188;28;20206;-67
2021/03/06 07:45:59;;;;;;;9.80;5.20;;;4.50;92.10;11.60;101060.00;;;;5048380;28;20538;-67
2021/03/06 07:48:35;;;;;;;8.35;5.65;;;4.50;92.10;11.60;101074.00;;;;5048486;28;20316;-67
2021/03/06 07:51:00;;;;;;;7.15;5.10;;;4.50;92.10;11.70;101074.00;;;;5048154;28;20530;-67
2021/03/06 07:53:27;;;;;;;7.40;5.47;;;4.50;92.10;11.50;101066.00;;;;5049065;28;20748;-68
2021/03/06 07:55:53;;;;;;;6.65;4.68;;;4.50;92.10;11.60;101073.00;;;;5048417;28;20341;-67
2021/03/06 07:58:22;;;;;;;7.70;5.67;;;4.50;92.10;11.60;101067.00;;;;5048657;28;20616;-68
2021/03/06 08:00:55;;;;;;;6.75;4.93;;;4.50;92.20;11.70;101068.00;;;;5048080;28;20476;-67
2021/03/06 08:03:36;;;;;;;8.05;5.20;;;4.50;92.20;11.80;101079.00;;;;5048254;28;20182;-67
2021/03/06 08:06:19;;;;;;;8.02;5.78;;;4.50;92.10;11.80;101062.00;;;;5048075;28;20201;-68
2021/03/06 08:08:44;;;;;;;7.10;5.00;;;4.50;92.20;11.60;101078.00;;;;5048778;28;20711;-67
2021/03/06 08:11:22;;;;;;;8.13;4.80;;;4.50;92.20;11.70;101079.00;;;;5049452;28;20240;-68
2021/03/06 08:13:51;;;;;;;7.25;5.07;;;4.50;92.20;11.60;101086.00;;;;5048825;28;20182;-68
2021/03/06 08:16:23;;;;;;;6.32;4.55;;;4.50;92.20;11.70;101085.00;;;;5047401;28;20205;-67
2021/03/06 08:18:55;;;;;;;8.35;5.45;;;4.50;92.20;11.70;101077.00;;;;5049589;28;20197;-67
2021/03/06 08:21:40;;;;;;;7.50;5.43;;;4.50;92.20;11.70;101083.00;;;;5048051;28;20243;-68
2021/03/06 08:24:15;;;;;;;10.80;5.88;;;4.50;92.20;11.80;101089.00;;;;5032957;28;20275;-68
2021/03/06 08:27:02;;;;;;;7.40;5.00;;;4.50;92.20;11.80;101091.00;;;;5047509;28;20598;-67
2021/03/06 08:29:28;;;;;;;7.05;5.20;;;4.50;92.20;11.70;101094.00;;;;5049430;28;20518;-67
2021/03/06 08:31:58;;;;;;;8.65;5.32;;;4.50;92.20;11.80;101053.00;;;;5049182;28;20238;-68
2021/03/06 08:34:40;;;;;;;6.85;4.88;;;4.50;92.20;11.40;101090.00;;;;5048889;28;20178;-68
2021/03/06 08:37:19;;;;;;;6.65;4.72;;;4.50;92.20;11.50;101087.00;;;;5051345;28;20189;-68
2021/03/06 08:40:05;;;;;;;6.95;4.88;;;4.50;92.20;11.70;101100.00;;;;5051727;28;20221;-68
2021/03/06 08:42:32;;;;;;;7.10;4.68;;;4.50;92.20;11.70;101103.00;;;;5052957;28;20189;-67
2021/03/06 08:45:25;;;;;;;7.57;5.38;;;4.50;92.20;11.70;101102.00;;;;5050152;28;20232;-67
2021/03/06 08:48:03;;;;;;;6.70;4.50;;;4.50;92.20;11.60;101095.00;;;;5033739;28;20189;-67
2021/03/06 08:50:31;;;;;;;7.10;5.18;;;4.50;92.20;11.60;101104.00;;;;5035101;28;20232;-67
2021/03/06 08:53:13;;;;;;;6.53;4.72;;;4.50;92.20;11.70;101107.00;;;;5050980;28;20182;-67
2021/03/06 08:55:40;;;;;;;6.55;4.95;;;4.50;92.20;11.80;101101.00;;;;5052630;28;20237;-67
2021/03/06 08:58:08;;;;;;;8.95;5.60;;;4.50;92.20;11.80;101106.00;;;;5051331;28;20186;-68
2021/03/06 09:01:05;;;;;;;8.27;5.75;;;4.50;92.20;11.70;101100.00;;;;5034183;28;20272;-67
2021/03/06 09:03:31;;;;;;;7.00;4.90;;;4.50;92.20;11.70;101100.00;;;;5051604;28;20190;-68
2021/03/06 09:05:58;;;;;;;7.27;5.33;;;4.50;92.30;11.60;101085.00;;;;5017776;28;20252;-67
2021/03/06 09:08:25;;;;;;;8.80;6.32;;;4.50;92.40;11.80;101101.00;;;;5050782;28;20599;-68
2021/03/06 09:10:58;;;;;;;6.35;4.38;;;4.50;91.70;11.90;101096.00;;;;5052403;28;20202;-67
2021/03/06 09:13:26;;;;;;;7.80;5.22;;;4.50;91.90;11.40;101099.00;;;;5051302;28;20424;-67
2021/03/06 09:16:11;;;;;;;7.85;5.18;;;4.60;92.00;11.80;101088.00;;;;5050520;28;20260;-67
2021/03/06 09:18:38;;;;;;;9.68;5.75;;;4.50;92.00;11.60;101101.00;;;;5051263;28;20268;-67
2021/03/06 09:21:16;;;;;;;9.70;6.40;;;4.60;92.10;11.70;101095.00;;;;5050761;28;20773;-68
2021/03/06 09:23:45;;;;;;;7.85;5.15;;;4.60;92.10;11.60;101083.00;;;;5050609;28;20215;-68
2021/03/06 09:26:19;;;;;;;8.07;5.40;;;4.50;92.10;11.80;101103.00;;;;5033187;28;20213;-67
2021/03/06 09:28:49;;;;;;;8.35;5.32;;;4.60;92.10;11.60;101085.00;;;;5055384;28;20220;-68
2021/03/06 09:31:17;;;;;;;8.00;5.15;;;4.60;92.20;11.70;101092.00;;;;5049452;28;20239;-67
2021/03/06 09:33:43;;;;;;;7.65;5.47;;;4.60;92.20;11.70;101079.00;;;;5045587;28;20301;-68
2021/03/06 09:36:17;;;;;;;7.82;5.18;;;4.50;92.10;11.80;101094.00;;;;5053024;28;20616;-67
2021/03/06 09:38:52;;;;;;;7.82;5.25;;;4.60;92.20;11.80;101082.00;;;;5069535;28;20242;-67
2021/03/06 09:41:23;;;;;;;6.93;4.90;;;4.50;92.20;11.90;101084.00;;;;5069693;28;20228;-67
2021/03/06 09:43:53;;;;;;;7.07;5.05;;;4.50;92.20;11.80;101088.00;;;;5052200;28;20188;-68
2021/03/06 09:46:25;;;;;;;6.88;4.97;;;4.60;92.20;11.80;101087.00;;;;5036508;28;20304;-67
2021/03/06 09:48:58;;;;;;;8.07;5.07;;;4.50;92.60;11.70;101091.00;;;;5049245;28;20182;-67
2021/03/06 09:51:36;;;;;;;8.88;5.47;;;4.60;92.20;11.80;101087.00;;;;5049372;28;20206;-67
2021/03/06 09:54:02;;;;;;;9.00;5.22;;;4.50;92.20;12.00;101092.00;;;;5034257;28;20174;-68
2021/03/06 09:56:28;;;;;;;5.37;4.17;;;4.60;92.20;11.90;101088.00;;;;5049666;28;20200;-68
2021/03/06 09:58:58;;;;;;;6.82;5.00;;;4.60;92.30;11.90;101088.00;;;;5050013;28;20459;-68
2021/03/06 10:01:24;;;;;;;11.30;4.90;;;4.60;92.60;11.90;101086.00;;;;5033376;28;20217;-68
2021/03/06 10:03:50;;;;;;;7.30;4.93;;;4.60;92.30;11.90;101058.00;;;;5049646;28;20200;-67
2021/03/06 10:06:19;;;;;;;6.30;4.40;;;4.60;92.30;11.60;101092.00;;;;5050227;28;20665;-68
2021/03/06 10:08:56;;;;;;;7.43;5.00;;;4.60;92.30;11.80;101095.00;;;;5049770;28;20177;-68
2021/03/06 10:11:37;;;;;;;7.95;4.75;;;4.60;92.30;11.60;101088.00;;;;5049563;28;20190;-67
2021/03/06 10:14:03;;;;;;;6.72;4.65;;;4.60;92.30;11.90;101087.00;;;;5049727;28;20181;-68
2021/03/06 10:16:41;;;;;;;7.07;5.22;;;4.60;92.30;11.80;101085.00;;;;5049704;28;20198;-68
2021/03/06 10:19:06;;;;;;;7.18;4.80;;;4.60;92.30;11.90;101095.00;;;;5034197;28;20367;-68
2021/03/06 10:21:32;;;;;;;7.43;4.83;;;4.60;92.70;11.90;101087.00;;;;5049788;28;20221;-68
2021/03/06 10:24:03;;;;;;;9.67;5.40;;;4.60;92.30;11.80;101087.00;;;;5048749;28;20228;-68
2021/03/06 10:26:29;;;;;;;7.20;4.30;;;4.60;92.30;11.50;101087.00;;;;5049428;28;20213;-68
2021/03/06 10:28:58;;;;;;;6.25;4.50;;;4.60;92.30;11.70;101079.00;;;;5049345;28;20174;-69
2021/03/06 10:31:37;;;;;;;6.65;4.10;;;4.60;92.30;11.60;101081.00;;;;5033067;28;20279;-68
2021/03/06 10:34:24;;;;;;;6.15;3.90;;;4.60;92.30;11.60;101085.00;;;;5049214;28;20263;-68
2021/03/06 10:37:09;;;;;;;7.20;4.60;;;4.60;92.30;11.70;101087.00;;;;5032311;28;20182;-68
2021/03/06 10:40:09;;;;;;;7.13;4.10;;;4.60;92.30;11.80;101069.00;;;;5048955;28;20185;-68
2021/03/06 10:42:51;;;;;;;6.25;4.10;;;4.60;92.30;11.80;101082.00;;;;5049371;28;20544;-68
2021/03/06 10:45:28;;;;;;;5.55;3.85;;;4.60;92.30;11.90;101078.00;;;;5049432;28;20277;-68
2021/03/06 10:47:59;;;;;;;6.45;3.92;;;4.60;92.30;11.60;101082.00;;;;5032375;28;20194;-68
2021/03/06 10:50:32;;;;;;;6.38;4.00;;;4.60;92.30;11.60;101066.00;;;;5032415;28;20973;-68
2021/03/06 10:53:21;;;;;;;6.70;3.97;;;4.60;92.30;11.80;101079.00;;;;5048458;28;20541;-68
2021/03/06 10:55:48;;;;;;;6.97;4.30;;;4.60;92.30;11.50;101082.00;;;;5049414;28;20204;-68
2021/03/06 10:58:14;;;;;;;6.53;4.03;;;4.60;92.30;11.80;101063.00;;;;5048128;28;20178;-69
2021/03/06 11:00:41;;;;;;;5.38;3.60;;;4.60;92.30;11.80;101059.00;;;;5048658;28;20218;-68
2021/03/06 11:03:09;;;;;;;7.78;5.07;;;4.60;92.30;11.90;101065.00;;;;5048208;28;20601;-68
2021/03/06 11:05:35;;;;;;;6.78;4.10;;;4.60;92.30;11.90;101063.00;;;;5048904;28;20297;-68
2021/03/06 11:08:20;;;;;;;5.35;3.53;;;4.60;92.30;11.90;101062.00;;;;5031676;28;20601;-68
2021/03/06 11:10:52;;;;;;;6.38;4.05;;;4.60;92.30;11.80;101060.00;;;;5048998;28;20557;-68